createdAt,value
2022-12-01T00:01:18.417Z,81.70
2022-12-01T00:03:45.307Z,81.90
2022-12-01T00:06:15.903Z,81.80
2022-12-01T00:09:03.916Z,81.80
2022-12-01T00:11:30.934Z,81.90
2022-12-01T00:13:57.965Z,81.60
2022-12-01T00:16:25.001Z,81.60
2022-12-01T00:18:53.451Z,81.70
2022-12-01T00:21:22.467Z,82.10
2022-12-01T00:23:56.307Z,81.70
2022-12-01T00:26:24.584Z,81.80
2022-12-01T00:28:53.272Z,81.90
2022-12-01T00:31:21.395Z,82.10
2022-12-01T00:33:49.837Z,82.30
2022-12-01T00:36:17.590Z,82.30
2022-12-01T00:38:45.087Z,82.30
2022-12-01T00:41:12.113Z,82.10
2022-12-01T00:43:39.813Z,82.10
2022-12-01T00:46:07.739Z,82.10
2022-12-01T00:48:34.945Z,82.00
2022-12-01T00:51:01.812Z,81.80
2022-12-01T00:53:28.928Z,81.70
2022-12-01T00:55:55.794Z,81.90
2022-12-01T00:58:23.578Z,81.90
2022-12-01T01:00:56.997Z,82.10
2022-12-01T01:03:23.926Z,82.10
2022-12-01T01:05:50.778Z,82.10
2022-12-01T01:08:17.659Z,82.20
2022-12-01T01:10:47.344Z,82.10
2022-12-01T01:13:15.249Z,81.90
2022-12-01T01:15:42.534Z,81.90
2022-12-01T01:18:11.553Z,82.00
2022-12-01T01:20:38.428Z,82.10
2022-12-01T01:23:05.473Z,82.10
2022-12-01T01:25:32.938Z,82.30
2022-12-01T01:28:00.188Z,82.30
2022-12-01T01:30:27.177Z,82.50
2022-12-01T01:32:54.302Z,82.50
2022-12-01T01:35:21.341Z,82.50
2022-12-01T01:37:51.971Z,82.60
2022-12-01T01:40:19.425Z,82.50
2022-12-01T01:42:53.264Z,82.70
2022-12-01T01:45:28.808Z,82.80
2022-12-01T01:48:00.188Z,83.00
2022-12-01T01:50:28.664Z,83.00
2022-12-01T01:53:03.618Z,83.10
2022-12-01T01:55:39.300Z,83.00
2022-12-01T01:58:11.061Z,83.10
2022-12-01T02:00:57.829Z,82.60
2022-12-01T02:03:32.342Z,82.50
2022-12-01T02:06:05.298Z,82.60
2022-12-01T02:08:35.165Z,82.70
2022-12-01T02:11:11.058Z,83.40
2022-12-01T02:17:16.604Z,83.00
2022-12-01T02:20:15.710Z,83.30
2022-12-01T02:23:11.766Z,83.30
2022-12-01T02:26:01.144Z,83.30
2022-12-01T02:29:02.202Z,83.40
2022-12-01T02:34:55.153Z,83.70
2022-12-01T02:45:56.458Z,84.10
2022-12-01T03:34:01.227Z,84.20
2022-12-01T05:46:49.383Z,83.60
2022-12-01T06:35:41.560Z,84.00
2022-12-01T07:46:22.232Z,84.20
2022-12-01T07:48:50.858Z,84.40
2022-12-01T07:51:18.334Z,84.50
2022-12-01T07:53:48.949Z,84.10
2022-12-01T08:26:02.420Z,84.30
2022-12-01T08:28:30.012Z,84.00
2022-12-01T08:45:00.870Z,83.70
2022-12-01T08:51:28.077Z,84.20
2022-12-01T09:17:10.427Z,83.90
2022-12-01T09:24:09.393Z,83.70
2022-12-01T09:27:13.308Z,83.40
2022-12-01T09:36:22.908Z,83.50
2022-12-01T09:39:34.008Z,83.30
2022-12-01T09:42:30.868Z,83.30
2022-12-01T09:45:07.347Z,83.30
2022-12-01T09:47:44.661Z,83.20
2022-12-01T09:50:30.085Z,83.20
2022-12-01T09:56:56.403Z,83.10
2022-12-01T10:03:07.079Z,83.10
2022-12-01T10:06:24.974Z,82.60
2022-12-01T10:08:44.104Z,82.70
2022-12-01T10:11:38.567Z,82.70
2022-12-01T10:14:24.773Z,82.60
2022-12-01T10:17:00.979Z,82.40
2022-12-01T10:19:35.397Z,82.50
2022-12-01T10:22:32.970Z,82.40
2022-12-01T10:25:27.592Z,81.70
2022-12-01T10:28:21.491Z,81.80
2022-12-01T10:30:54.187Z,81.70
2022-12-01T10:33:48.826Z,81.70
2022-12-01T10:36:15.717Z,81.90
2022-12-01T10:38:49.790Z,81.80
2022-12-01T10:41:23.256Z,81.80
2022-12-01T10:43:52.485Z,82.00
2022-12-01T10:49:53.712Z,82.00
2022-12-01T10:52:52.973Z,81.50
2022-12-01T10:55:36.476Z,81.40
2022-12-01T11:01:48.192Z,81.20
2022-12-01T11:04:58.730Z,81.60
2022-12-01T11:07:44.223Z,81.90
2022-12-01T11:10:29.903Z,82.20
2022-12-01T11:13:33.437Z,82.40
2022-12-01T11:16:47.302Z,82.50
2022-12-01T11:19:27.233Z,83.30
2022-12-01T11:21:57.843Z,82.70
2022-12-01T11:24:42.411Z,83.30
2022-12-01T11:27:18.392Z,82.90
2022-12-01T11:30:07.539Z,83.10
2022-12-01T11:32:47.212Z,83.10
2022-12-01T11:35:20.359Z,83.00
2022-12-01T11:38:21.025Z,83.10
2022-12-01T11:40:58.684Z,83.20
2022-12-01T11:44:01.080Z,83.30
2022-12-01T11:46:33.665Z,83.30
2022-12-01T11:49:01.531Z,83.50
2022-12-01T11:51:41.129Z,83.60
2022-12-01T11:54:16.228Z,83.90
2022-12-01T11:56:45.204Z,83.70
2022-12-01T11:59:15.692Z,83.80
2022-12-01T12:02:21.780Z,84.00
2022-12-01T12:09:05.526Z,83.60
2022-12-01T12:12:06.987Z,83.80
2022-12-01T12:14:56.659Z,83.80
2022-12-01T12:18:08.800Z,84.00
2022-12-01T12:20:44.515Z,84.10
2022-12-01T12:23:22.361Z,84.00
2022-12-01T12:26:15.428Z,84.00
2022-12-01T12:29:17.598Z,84.30
2022-12-01T12:32:03.040Z,84.50
2022-12-01T12:35:04.768Z,84.50
2022-12-01T12:38:12.086Z,84.60
2022-12-01T12:40:53.483Z,84.60
2022-12-01T12:43:33.611Z,84.70
2022-12-01T12:46:26.840Z,84.80
2022-12-01T12:49:25.515Z,84.70
2022-12-01T12:51:59.366Z,84.90
2022-12-01T12:55:00.288Z,84.90
2022-12-01T12:57:38.142Z,85.20
2022-12-01T13:00:17.132Z,85.20
2022-12-01T13:03:06.114Z,85.30
2022-12-01T13:05:55.695Z,85.20
2022-12-01T13:08:36.910Z,85.10
2022-12-01T13:11:15.670Z,85.10
2022-12-01T13:14:06.557Z,85.30
2022-12-01T13:17:05.713Z,85.40
2022-12-01T13:19:36.794Z,85.20
2022-12-01T13:22:06.030Z,85.80
2022-12-01T13:24:33.010Z,85.10
2022-12-01T13:27:11.555Z,85.20
2022-12-01T13:29:44.543Z,85.30
2022-12-01T13:32:36.757Z,85.10
2022-12-01T13:35:23.956Z,85.00
2022-12-01T13:37:51.234Z,84.90
2022-12-01T13:40:29.073Z,84.90
2022-12-01T13:43:10.312Z,85.10
2022-12-01T13:45:40.733Z,85.30
2022-12-01T13:48:28.694Z,85.50
2022-12-01T13:50:58.649Z,85.50
2022-12-01T13:53:35.086Z,85.50
2022-12-01T13:56:17.398Z,85.40
2022-12-01T13:58:50.421Z,86.30
2022-12-01T14:01:20.666Z,85.70
2022-12-01T14:04:03.671Z,85.90
2022-12-01T14:06:50.939Z,85.80
2022-12-01T14:09:32.409Z,85.40
2022-12-01T14:12:18.188Z,85.70
2022-12-01T14:14:59.948Z,85.60
2022-12-01T14:17:37.160Z,85.60
2022-12-01T14:20:24.490Z,85.20
2022-12-01T14:23:03.691Z,85.40
2022-12-01T14:25:31.694Z,85.40
2022-12-01T14:28:01.459Z,85.50
2022-12-01T14:30:40.944Z,85.70
2022-12-01T14:33:46.503Z,85.70
2022-12-01T14:36:32.295Z,85.80
2022-12-01T14:39:11.608Z,85.70
2022-12-01T14:41:48.576Z,85.80
2022-12-01T14:44:30.552Z,86.00
2022-12-01T14:47:05.359Z,86.00
2022-12-01T14:50:01.129Z,86.10
2022-12-01T14:52:39.934Z,86.20
2022-12-01T14:55:18.579Z,86.20
2022-12-01T14:57:51.650Z,86.30
2022-12-01T15:00:23.837Z,86.70
2022-12-01T15:02:53.708Z,86.50
2022-12-01T15:05:21.891Z,86.80
2022-12-01T15:08:06.759Z,86.40
2022-12-01T15:10:53.028Z,86.50
2022-12-01T15:13:19.818Z,86.60
2022-12-01T15:15:52.474Z,86.40
2022-12-01T15:18:28.680Z,86.60
2022-12-01T15:21:05.103Z,86.60
2022-12-01T15:23:32.044Z,86.40
2022-12-01T15:26:00.794Z,85.70
2022-12-01T15:28:34.583Z,85.40
2022-12-01T15:31:09.477Z,85.70
2022-12-01T15:33:39.080Z,85.40
2022-12-01T15:36:07.772Z,85.50
2022-12-01T15:38:38.765Z,85.70
2022-12-01T15:44:03.492Z,86.10
2022-12-01T15:46:34.241Z,86.40
2022-12-01T15:49:08.980Z,86.90
2022-12-01T15:51:36.227Z,86.80
2022-12-01T15:54:05.400Z,86.60
2022-12-01T15:56:36.286Z,86.50
2022-12-01T15:59:14.683Z,86.70
2022-12-01T16:01:43.745Z,86.80
2022-12-01T16:04:24.043Z,86.80
2022-12-01T16:07:07.038Z,86.90
2022-12-01T16:09:38.273Z,86.70
2022-12-01T16:12:21.932Z,86.80
2022-12-01T16:15:00.851Z,86.60
2022-12-01T16:17:39.957Z,86.70
2022-12-01T16:20:17.040Z,86.70
2022-12-01T16:22:49.903Z,86.80
2022-12-01T16:25:38.144Z,86.50
2022-12-01T16:28:07.681Z,86.80
2022-12-01T16:30:39.645Z,87.20
2022-12-01T16:33:17.068Z,87.20
2022-12-01T16:35:44.705Z,87.50
2022-12-01T16:38:20.497Z,87.20
2022-12-01T16:40:50.026Z,87.20
2022-12-01T16:43:22.683Z,87.30
2022-12-01T16:45:52.948Z,87.40
2022-12-01T16:48:20.771Z,87.30
2022-12-01T16:50:48.674Z,87.20
2022-12-01T16:53:16.019Z,87.00
2022-12-01T16:56:00.944Z,87.00
2022-12-01T16:58:28.101Z,86.80
2022-12-01T17:00:55.186Z,86.70
2022-12-01T17:03:25.034Z,86.80
2022-12-01T17:05:52.548Z,86.50
2022-12-01T17:08:19.893Z,86.20
2022-12-01T17:10:50.357Z,85.80
2022-12-01T17:13:18.845Z,85.70
2022-12-01T17:15:48.300Z,85.90
2022-12-01T17:18:17.343Z,86.30
2022-12-01T17:23:27.525Z,86.70
2022-12-01T17:25:54.945Z,86.70
2022-12-01T17:28:24.458Z,86.70
2022-12-01T17:30:51.452Z,86.50
2022-12-01T17:33:18.485Z,86.50
2022-12-01T17:35:45.584Z,86.70
2022-12-01T17:38:12.491Z,86.50
2022-12-01T17:40:39.339Z,86.50
2022-12-01T17:43:08.191Z,86.50
2022-12-01T17:45:35.941Z,86.60
2022-12-01T17:48:02.906Z,86.20
2022-12-01T17:50:29.935Z,86.50
2022-12-01T17:52:56.963Z,86.30
2022-12-01T17:55:23.971Z,86.40
2022-12-01T17:57:50.965Z,86.50
2022-12-01T18:00:18.282Z,86.30
2022-12-01T18:02:47.350Z,86.50
2022-12-01T18:05:14.467Z,86.80
2022-12-01T18:07:41.473Z,86.80
2022-12-01T18:10:08.999Z,86.90
2022-12-01T18:12:35.975Z,87.60
2022-12-01T18:15:04.015Z,86.70
2022-12-01T18:17:35.511Z,86.60
2022-12-01T18:20:06.918Z,87.00
2022-12-01T18:22:34.052Z,86.70
2022-12-01T18:25:00.913Z,86.50
2022-12-01T18:27:27.903Z,86.60
2022-12-01T18:29:55.059Z,86.80
2022-12-01T18:32:22.077Z,86.80
2022-12-01T18:34:49.596Z,86.90
2022-12-01T18:37:16.830Z,87.10
2022-12-01T18:39:43.875Z,86.80
2022-12-01T18:42:11.184Z,86.80
2022-12-01T18:44:38.892Z,87.00
2022-12-01T18:47:06.689Z,87.50
2022-12-01T18:49:36.619Z,87.40
2022-12-01T18:52:04.772Z,87.50
2022-12-01T18:54:31.995Z,87.50
2022-12-01T18:56:59.406Z,88.50
2022-12-01T18:59:26.953Z,91.60
2022-12-01T19:01:54.139Z,91.10
2022-12-01T19:04:21.326Z,89.70
2022-12-01T19:06:48.737Z,88.50
2022-12-01T19:09:16.395Z,88.10
2022-12-01T19:11:44.203Z,87.80
2022-12-01T19:14:17.852Z,87.50
2022-12-01T19:16:47.059Z,87.30
2022-12-01T19:19:14.742Z,87.30
2022-12-01T19:21:45.374Z,87.30
2022-12-01T19:24:12.711Z,86.80
2022-12-01T19:26:39.824Z,86.90
2022-12-01T19:29:08.087Z,87.30
2022-12-01T19:31:35.392Z,87.50
2022-12-01T19:34:04.600Z,87.80
2022-12-01T19:36:31.795Z,87.90
2022-12-01T19:39:03.946Z,87.80
2022-12-01T19:41:36.935Z,88.00
2022-12-01T19:44:05.306Z,88.20
2022-12-01T19:46:33.087Z,88.40
2022-12-01T19:49:01.961Z,88.30
2022-12-01T19:51:35.520Z,88.30
2022-12-01T19:54:08.039Z,88.20
2022-12-01T19:56:35.646Z,88.20
2022-12-01T19:59:02.710Z,88.00
2022-12-01T20:01:39.276Z,88.10
2022-12-01T20:04:07.439Z,88.50
2022-12-01T20:06:36.770Z,88.50
2022-12-01T20:09:07.191Z,88.80
2022-12-01T20:11:35.571Z,88.30
2022-12-01T20:14:04.810Z,88.80
2022-12-01T20:16:32.557Z,88.80
2022-12-01T20:19:02.693Z,89.00
2022-12-01T20:21:33.395Z,89.00
2022-12-01T20:24:03.626Z,89.10
2022-12-01T20:26:36.709Z,89.20
2022-12-01T20:29:16.650Z,89.30
2022-12-01T20:31:44.243Z,88.70
2022-12-01T20:34:15.845Z,88.90
2022-12-01T20:36:43.601Z,89.20
2022-12-01T20:39:12.198Z,89.00
2022-12-01T20:41:40.514Z,88.80
2022-12-01T20:44:08.982Z,88.90
2022-12-01T20:46:37.762Z,89.30
2022-12-01T20:49:05.790Z,89.50
2022-12-01T20:51:33.535Z,89.40
2022-12-01T20:54:26.807Z,89.10
2022-12-01T20:56:55.465Z,89.10
2022-12-01T20:59:22.616Z,89.60
2022-12-01T21:01:49.625Z,89.70
2022-12-01T21:04:17.301Z,89.30
2022-12-01T21:06:44.223Z,89.50
2022-12-01T21:09:13.216Z,89.60
2022-12-01T21:12:41.096Z,89.60
2022-12-01T21:15:36.338Z,89.80
2022-12-01T21:18:27.272Z,89.90
2022-12-01T21:21:03.915Z,89.70
2022-12-01T21:23:33.176Z,89.90
2022-12-01T21:26:00.513Z,90.10
2022-12-01T21:28:27.659Z,90.10
2022-12-01T21:31:13.890Z,90.10
2022-12-01T21:33:41.787Z,90.10
2022-12-01T21:36:22.759Z,90.00
2022-12-01T21:39:00.388Z,90.10
2022-12-01T21:41:29.008Z,90.10
2022-12-01T21:44:17.663Z,90.10
2022-12-01T21:46:44.858Z,90.00
2022-12-01T21:49:21.204Z,89.90
2022-12-01T21:51:51.727Z,90.00
2022-12-01T21:54:22.958Z,90.00
2022-12-01T21:56:51.233Z,90.10
2022-12-01T21:59:24.401Z,90.20
2022-12-01T22:01:55.196Z,90.10
2022-12-01T22:04:28.208Z,90.00
2022-12-01T22:06:56.616Z,90.00
2022-12-01T22:09:33.046Z,90.10
2022-12-01T22:12:31.173Z,90.10
2022-12-01T22:15:01.048Z,90.10
2022-12-01T22:17:29.518Z,90.10
2022-12-01T22:19:59.882Z,90.10
2022-12-01T22:22:39.907Z,89.80
2022-12-01T22:25:25.632Z,89.70
2022-12-01T22:27:52.894Z,90.00
2022-12-01T22:30:24.222Z,90.00
2022-12-01T22:33:00.980Z,90.20
2022-12-01T22:35:39.862Z,90.00
2022-12-01T22:38:06.686Z,89.80
2022-12-01T22:40:59.024Z,89.80
2022-12-01T22:43:37.438Z,90.10
2022-12-01T22:46:20.910Z,90.10
2022-12-01T22:48:54.257Z,90.10
2022-12-01T22:51:30.536Z,89.80
2022-12-01T22:54:22.797Z,89.60
2022-12-01T22:57:27.247Z,89.70
2022-12-01T23:00:26.001Z,89.70
2022-12-01T23:02:55.527Z,89.90
2022-12-01T23:05:28.926Z,90.00
2022-12-01T23:07:57.085Z,90.10
2022-12-01T23:10:35.010Z,90.10
2022-12-01T23:13:14.729Z,90.00
2022-12-01T23:15:48.128Z,90.20
2022-12-01T23:18:27.939Z,90.10
2022-12-01T23:20:57.537Z,90.10
2022-12-01T23:23:31.718Z,90.20
2022-12-01T23:26:00.935Z,90.00
2022-12-01T23:28:29.707Z,90.00
2022-12-01T23:30:59.146Z,89.90
2022-12-01T23:33:31.389Z,90.00
2022-12-01T23:36:19.079Z,89.90
2022-12-01T23:39:02.086Z,89.90
2022-12-01T23:41:36.622Z,90.00
2022-12-01T23:44:15.425Z,90.10
2022-12-01T23:46:42.663Z,90.00
2022-12-01T23:49:19.746Z,90.00
2022-12-01T23:51:54.952Z,90.00
2022-12-01T23:54:29.159Z,90.10
2022-12-01T23:57:00.646Z,90.00
2022-12-01T23:59:28.862Z,90.00
